Time;durP1;ratioP1;P1;durP2;ratioP2;P2;SDS_P1;SDS_P2;PMS_P1;PMS_P2;Temp;Humidity;BMP_temperature;BMP_pressure;BME280_temperature;BME280_humidity;BME280_pressure;Samples;Min_cycle;Max_cycle;Signal;HPM_P1;HPM_P2
2023/07/24 00:02:05;;;;;;;15.73;13.98;;;23.80;99.90;;;;;;5111897;28;20024;-55
2023/07/24 00:04:32;;;;;;;16.02;13.80;;;23.80;99.90;;;;;;5111336;28;20474;-54
2023/07/24 00:06:58;;;;;;;17.15;14.05;;;23.90;99.90;;;;;;5091779;28;20468;-54
2023/07/24 00:09:24;;;;;;;16.75;14.93;;;24.00;99.90;;;;;;5074613;28;20051;-55
2023/07/24 00:11:49;;;;;;;17.52;14.07;;;24.00;99.90;;;;;;5111322;28;20424;-54
2023/07/24 00:14:16;;;;;;;19.00;13.68;;;24.00;99.90;;;;;;5111026;28;20094;-55
2023/07/24 00:16:41;;;;;;;14.95;13.27;;;24.10;99.90;;;;;;5111140;28;20049;-54
2023/07/24 00:19:07;;;;;;;17.52;13.80;;;24.10;99.90;;;;;;5092418;28;20114;-54
2023/07/24 00:21:33;;;;;;;15.95;14.25;;;24.10;99.90;;;;;;5110787;28;20039;-54
2023/07/24 00:23:58;;;;;;;17.02;14.73;;;23.80;99.90;;;;;;5096452;28;20168;-54
2023/07/24 00:26:24;;;;;;;17.30;13.60;;;23.80;99.90;;;;;;5090856;28;20032;-54
2023/07/24 00:28:51;;;;;;;16.42;14.23;;;23.90;99.90;;;;;;5090575;28;20032;-55
2023/07/24 00:31:17;;;;;;;16.33;14.40;;;23.50;99.90;;;;;;5090397;28;20462;-54
2023/07/24 00:33:42;;;;;;;18.27;15.18;;;23.30;99.90;;;;;;5090247;28;20038;-54
2023/07/24 00:36:08;;;;;;;20.15;14.90;;;23.20;99.90;;;;;;5091149;28;20028;-54
2023/07/24 00:38:34;;;;;;;18.20;15.25;;;23.10;99.90;;;;;;5090463;28;20028;-53
2023/07/24 00:41:00;;;;;;;16.90;15.15;;;23.10;99.90;;;;;;5090310;28;20081;-54
2023/07/24 00:43:25;;;;;;;16.98;15.25;;;22.90;99.90;;;;;;5051588;28;20044;-54
2023/07/24 00:45:51;;;;;;;17.92;15.20;;;;;;;;;;5090107;28;20528;-55
2023/07/24 00:48:17;;;;;;;20.58;15.05;;;22.80;99.90;;;;;;5054213;28;20127;-55
2023/07/24 00:50:45;;;;;;;17.88;15.35;;;23.00;99.90;;;;;;5090383;28;20109;-54
2023/07/24 00:53:12;;;;;;;23.13;16.25;;;;;;;;;;5089644;28;20020;-54
2023/07/24 00:55:39;;;;;;;20.20;15.52;;;22.70;99.90;;;;;;5089947;28;20479;-55
2023/07/24 00:58:05;;;;;;;18.92;14.50;;;22.70;99.90;;;;;;5090154;28;20026;-53
2023/07/24 01:00:31;;;;;;;17.75;15.82;;;22.50;99.90;;;;;;5090223;28;20028;-54
2023/07/24 01:02:59;;;;;;;17.88;14.25;;;22.50;99.90;;;;;;5089870;28;20028;-55
2023/07/24 01:05:26;;;;;;;23.70;15.98;;;22.60;99.90;;;;;;5089682;28;20116;-54
2023/07/24 01:07:54;;;;;;;18.70;15.20;;;22.20;99.90;;;;;;5090776;28;20032;-54
2023/07/24 01:10:20;;;;;;;19.40;15.95;;;22.40;99.90;;;;;;5089924;28;20427;-55
2023/07/24 01:12:58;;;;;;;18.33;15.20;;;22.60;99.90;;;;;;5089479;28;20032;-56
2023/07/24 01:15:34;;;;;;;17.92;15.13;;;22.50;99.90;;;;;;5089769;28;20016;-55
2023/07/24 01:18:10;;;;;;;19.10;15.60;;;22.50;99.90;;;;;;5089642;28;20020;-54
2023/07/24 01:20:40;;;;;;;17.27;15.48;;;22.50;99.90;;;;;;5089360;28;20016;-54
2023/07/24 01:23:26;;;;;;;18.30;16.40;;;22.30;99.90;;;;;;5063457;28;20040;-54
2023/07/24 01:25:59;;;;;;;16.92;15.23;;;22.10;99.90;;;;;;5110476;28;20027;-55
2023/07/24 01:28:26;;;;;;;18.63;15.68;;;;;;;;;;5073551;28;20035;-54
2023/07/24 01:30:52;;;;;;;17.88;14.85;;;;;;;;;;5109952;28;20049;-55
2023/07/24 01:33:19;;;;;;;19.33;14.68;;;21.80;99.90;;;;;;5110135;28;20100;-55
2023/07/24 01:35:44;;;;;;;17.67;15.25;;;21.80;99.90;;;;;;5090537;28;20063;-54
2023/07/24 01:38:14;;;;;;;16.52;13.77;;;21.80;99.90;;;;;;5109671;28;20067;-53
2023/07/24 01:40:43;;;;;;;17.50;14.68;;;21.80;99.90;;;;;;5109581;28;20019;-54
2023/07/24 01:43:09;;;;;;;16.13;14.43;;;21.90;99.90;;;;;;5110747;28;20035;-55
2023/07/24 01:45:38;;;;;;;16.30;14.25;;;21.90;99.90;;;;;;5109788;28;20076;-54
2023/07/24 01:48:05;;;;;;;19.70;14.35;;;21.80;99.90;;;;;;5109668;28;20467;-54
2023/07/24 01:50:31;;;;;;;18.83;15.52;;;21.70;99.90;;;;;;5109725;28;20043;-54
2023/07/24 01:52:57;;;;;;;17.10;15.18;;;21.60;99.90;;;;;;5109473;28;20379;-54
2023/07/24 01:55:22;;;;;;;17.15;15.32;;;21.60;99.90;;;;;;5109355;28;20027;-54
2023/07/24 01:57:48;;;;;;;17.80;16.00;;;21.60;99.90;;;;;;5109627;28;20037;-54
2023/07/24 02:00:14;;;;;;;18.92;16.55;;;21.50;99.90;;;;;;5110259;28;20031;-54
2023/07/24 02:02:40;;;;;;;17.80;15.90;;;21.50;99.90;;;;;;5109359;28;20115;-54
2023/07/24 02:05:05;;;;;;;20.92;16.42;;;21.60;99.90;;;;;;5110775;28;20110;-55
2023/07/24 02:07:31;;;;;;;17.95;16.02;;;21.60;99.90;;;;;;5110962;28;20070;-54
2023/07/24 02:09:57;;;;;;;17.30;15.48;;;21.70;99.90;;;;;;5110987;28;20577;-54
2023/07/24 02:12:23;;;;;;;17.52;15.10;;;22.00;99.90;;;;;;5110736;28;20072;-54
2023/07/24 02:14:49;;;;;;;23.88;16.08;;;22.10;99.90;;;;;;5076470;28;20092;-54
2023/07/24 02:17:16;;;;;;;16.77;14.98;;;22.00;99.90;;;;;;5111553;28;20478;-54
2023/07/24 02:19:42;;;;;;;19.77;15.60;;;22.10;99.90;;;;;;5059817;28;20490;-54
2023/07/24 02:22:07;;;;;;;18.30;15.40;;;22.00;99.90;;;;;;5110909;28;20067;-55
2023/07/24 02:24:33;;;;;;;16.98;15.27;;;22.00;99.90;;;;;;5110204;28;20445;-54
2023/07/24 02:27:00;;;;;;;18.00;15.57;;;21.80;99.90;;;;;;5076204;28;20523;-54
2023/07/24 02:29:25;;;;;;;17.70;15.90;;;21.80;99.90;;;;;;5110283;28;20078;-54
2023/07/24 02:31:52;;;;;;;19.27;16.05;;;21.90;99.90;;;;;;5110757;28;20467;-54
2023/07/24 02:34:18;;;;;;;20.23;16.20;;;22.10;99.90;;;;;;5111070;28;20127;-54
2023/07/24 02:36:44;;;;;;;23.02;17.08;;;22.20;99.90;;;;;;5110239;28;20488;-55
2023/07/24 02:39:10;;;;;;;23.63;16.60;;;22.30;99.90;;;;;;5112124;28;20028;-55
2023/07/24 02:41:35;;;;;;;18.25;16.42;;;22.40;99.90;;;;;;5112802;28;20022;-54
2023/07/24 02:44:03;;;;;;;18.52;14.70;;;22.50;99.90;;;;;;5112936;28;20034;-55
2023/07/24 02:46:30;;;;;;;18.52;15.07;;;22.50;99.90;;;;;;5112959;28;20028;-54
2023/07/24 02:48:56;;;;;;;16.80;15.10;;;22.40;99.90;;;;;;5113084;28;20024;-54
2023/07/24 02:51:22;;;;;;;16.88;14.73;;;22.40;99.90;;;;;;5113322;28;20481;-54
2023/07/24 02:53:47;;;;;;;18.92;14.70;;;22.40;99.90;;;;;;5113269;28;20030;-54
2023/07/24 02:56:13;;;;;;;18.27;16.38;;;22.50;99.90;;;;;;5112548;28;20032;-54
2023/07/24 03:01:14;;;;;;;19.55;16.13;;;22.50;99.90;;;;;;5116690;22;20080;-55
2023/07/24 03:03:41;;;;;;;17.67;15.70;;;22.60;99.90;;;;;;5034126;28;20480;-55
2023/07/24 03:06:07;;;;;;;20.05;15.73;;;22.60;99.90;;;;;;5015575;28;20037;-55
2023/07/24 03:08:33;;;;;;;16.63;14.88;;;22.60;99.90;;;;;;5034404;28;20033;-54
2023/07/24 03:10:59;;;;;;;20.75;16.42;;;22.60;99.90;;;;;;5034248;28;20029;-56
2023/07/24 03:13:24;;;;;;;18.05;14.57;;;22.50;99.90;;;;;;5033999;28;20033;-55
2023/07/24 03:15:57;;;;;;;17.13;15.30;;;22.50;99.90;;;;;;5033795;28;20478;-55
2023/07/24 03:18:23;;;;;;;16.85;14.98;;;22.50;99.90;;;;;;5034249;28;20030;-53
2023/07/24 03:20:49;;;;;;;17.17;14.65;;;22.30;99.90;;;;;;5033781;28;20032;-52
2023/07/24 03:23:15;;;;;;;15.90;14.20;;;22.40;99.90;;;;;;5015215;28;20046;-54
2023/07/24 03:25:41;;;;;;;16.48;14.32;;;22.30;99.90;;;;;;4998764;28;20424;-52
2023/07/24 03:28:07;;;;;;;14.93;13.13;;;22.30;99.90;;;;;;5034056;28;20045;-52
2023/07/24 03:30:33;;;;;;;15.05;12.77;;;22.20;99.90;;;;;;5033437;28;20051;-53
2023/07/24 03:32:59;;;;;;;15.57;13.95;;;22.30;99.90;;;;;;5033820;28;20116;-52
2023/07/24 03:35:25;;;;;;;18.02;13.65;;;22.20;99.90;;;;;;5033727;28;20115;-52
2023/07/24 03:37:51;;;;;;;15.98;14.38;;;22.30;99.90;;;;;;5034025;28;20056;-52
2023/07/24 03:40:16;;;;;;;16.20;13.90;;;22.20;99.90;;;;;;5033992;28;20072;-54
2023/07/24 03:42:42;;;;;;;25.88;14.88;;;22.20;99.90;;;;;;5033295;28;20034;-52
2023/07/24 03:45:08;;;;;;;15.38;13.75;;;22.20;99.90;;;;;;5033851;28;20045;-54
2023/07/24 03:47:34;;;;;;;17.35;13.68;;;22.30;99.90;;;;;;5033607;28;20137;-53
2023/07/24 03:50:00;;;;;;;17.67;13.57;;;22.30;99.90;;;;;;5033564;28;20159;-53
2023/07/24 03:52:26;;;;;;;18.00;14.07;;;22.30;99.90;;;;;;5047947;28;20044;-52
2023/07/24 03:54:52;;;;;;;18.35;14.60;;;22.30;99.90;;;;;;5033311;28;20025;-54
2023/07/24 03:57:18;;;;;;;19.38;14.45;;;22.40;99.90;;;;;;5014697;28;20068;-53
2023/07/24 03:59:44;;;;;;;16.23;13.60;;;22.40;99.90;;;;;;5038847;28;20056;-52
2023/07/24 04:02:10;;;;;;;16.17;14.48;;;22.40;99.90;;;;;;5053266;28;20029;-54
2023/07/24 04:04:37;;;;;;;19.58;13.95;;;22.40;99.90;;;;;;5053353;28;20033;-54
2023/07/24 04:07:03;;;;;;;15.38;13.70;;;22.50;99.90;;;;;;5053241;28;20059;-53
2023/07/24 04:09:28;;;;;;;18.63;13.38;;;22.50;99.90;;;;;;5052870;28;20025;-52
2023/07/24 04:11:54;;;;;;;15.40;13.40;;;22.50;99.90;;;;;;5052937;28;20094;-53
2023/07/24 04:14:20;;;;;;;14.82;13.32;;;22.50;99.90;;;;;;5034063;28;20416;-54
2023/07/24 04:16:46;;;;;;;14.63;13.23;;;22.60;99.90;;;;;;5052715;28;20033;-53
2023/07/24 04:19:11;;;;;;;15.85;14.25;;;22.40;99.90;;;;;;5052671;28;20021;-52
2023/07/24 04:21:37;;;;;;;15.38;13.45;;;22.30;99.90;;;;;;5052995;28;20031;-53
2023/07/24 04:24:03;;;;;;;16.30;13.20;;;22.30;99.90;;;;;;5052499;28;20093;-53
2023/07/24 04:26:29;;;;;;;15.20;12.30;;;22.30;99.90;;;;;;5052914;28;20411;-53
2023/07/24 04:28:55;;;;;;;16.85;12.52;;;22.30;99.90;;;;;;5051734;28;20024;-54
2023/07/24 04:31:20;;;;;;;13.15;11.68;;;22.40;99.90;;;;;;5033794;28;20049;-53
2023/07/24 04:33:46;;;;;;;15.95;12.38;;;22.40;99.90;;;;;;5052384;28;20032;-54
2023/07/24 04:36:12;;;;;;;14.48;11.90;;;22.60;99.90;;;;;;5051218;28;20033;-53
2023/07/24 04:38:38;;;;;;;14.05;12.25;;;22.70;99.90;;;;;;5052921;28;20029;-53
2023/07/24 04:41:03;;;;;;;15.15;11.88;;;22.70;99.90;;;;;;5052290;28;20174;-52
2023/07/24 04:43:29;;;;;;;14.05;12.65;;;22.80;99.90;;;;;;5052445;28;20032;-53
2023/07/24 04:45:55;;;;;;;17.58;12.48;;;22.70;99.90;;;;;;5052249;28;20036;-53
2023/07/24 04:48:21;;;;;;;15.82;12.82;;;22.50;99.90;;;;;;5052015;28;20387;-54
2023/07/24 04:50:53;;;;;;;15.98;13.38;;;22.50;99.90;;;;;;5017107;28;20063;-53
2023/07/24 04:53:19;;;;;;;13.85;12.45;;;22.40;99.90;;;;;;5052252;28;20035;-54
2023/07/24 04:55:46;;;;;;;17.08;11.55;;;22.40;99.90;;;;;;5052597;28;20115;-54
2023/07/24 04:58:12;;;;;;;14.98;11.80;;;22.70;99.90;;;;;;5052300;28;20029;-53
2023/07/24 05:00:37;;;;;;;14.75;12.38;;;22.90;99.90;;;;;;5051771;28;20121;-54
2023/07/24 05:03:03;;;;;;;15.48;11.90;;;23.00;99.90;;;;;;5051834;28;20033;-54
2023/07/24 05:05:29;;;;;;;22.40;12.88;;;23.40;99.90;;;;;;5051898;28;20030;-54
2023/07/24 05:07:55;;;;;;;20.50;11.40;;;23.60;99.90;;;;;;5052019;28;20029;-53
2023/07/24 05:10:20;;;;;;;16.50;11.20;;;23.90;99.90;;;;;;5051989;28;20025;-52
2023/07/24 05:12:46;;;;;;;23.05;11.25;;;24.00;99.90;;;;;;5051969;28;20031;-53
2023/07/24 05:15:12;;;;;;;16.05;10.95;;;24.30;99.90;;;;;;4983650;28;20043;-54
2023/07/24 05:17:37;;;;;;;16.60;10.88;;;24.40;99.90;;;;;;5051737;28;20471;-53
2023/07/24 05:20:04;;;;;;;16.48;10.90;;;24.60;99.90;;;;;;5011102;28;20123;-53
2023/07/24 05:22:30;;;;;;;18.13;11.75;;;;;;;;;;5051043;28;20704;-53
2023/07/24 05:24:56;;;;;;;19.10;10.95;;;25.00;99.90;;;;;;5051465;28;20029;-52
2023/07/24 05:27:21;;;;;;;16.92;11.75;;;25.10;99.90;;;;;;5051855;28;20427;-54
2023/07/24 05:29:47;;;;;;;21.33;12.13;;;25.30;99.90;;;;;;5032804;28;20036;-53
2023/07/24 05:32:13;;;;;;;16.17;11.30;;;25.40;99.90;;;;;;5051731;28;20036;-53
2023/07/24 05:34:39;;;;;;;18.42;11.63;;;;;;;;;;5051589;28;20025;-52
2023/07/24 05:37:05;;;;;;;28.65;13.40;;;25.70;99.90;;;;;;5051800;28;20029;-53
2023/07/24 05:39:31;;;;;;;20.10;11.38;;;;;;;;;;5053450;28;20025;-53
2023/07/24 05:41:57;;;;;;;19.00;12.23;;;25.90;99.90;;;;;;5055930;28;20025;-54
2023/07/24 05:44:23;;;;;;;19.45;13.00;;;;;;;;;;5055754;28;20037;-54
2023/07/24 05:46:49;;;;;;;18.50;11.65;;;26.30;99.90;;;;;;5055917;28;20027;-54
2023/07/24 05:49:15;;;;;;;18.10;12.63;;;26.40;99.90;;;;;;5055390;28;20388;-52
2023/07/24 05:51:40;;;;;;;20.73;13.48;;;26.60;99.90;;;;;;5055448;28;20029;-54
2023/07/24 05:54:06;;;;;;;22.35;13.85;;;;;;;;;;5055847;28;20029;-54
2023/07/24 05:56:32;;;;;;;16.13;12.00;;;27.00;99.90;;;;;;5055831;28;20020;-54
2023/07/24 05:58:58;;;;;;;18.35;12.75;;;;;;;;;;5036591;28;20075;-53
2023/07/24 06:01:24;;;;;;;17.88;12.18;;;27.20;99.90;;;;;;5074742;28;20070;-53
2023/07/24 06:03:50;;;;;;;17.90;12.77;;;27.20;99.90;;;;;;5075526;28;20036;-53
2023/07/24 06:06:15;;;;;;;18.77;11.70;;;27.30;99.90;;;;;;5075428;28;20028;-54
2023/07/24 06:08:41;;;;;;;19.17;12.48;;;27.40;99.90;;;;;;5075055;28;20029;-53
2023/07/24 06:11:07;;;;;;;17.60;11.23;;;27.40;99.90;;;;;;5075004;28;20029;-55
2023/07/24 06:13:32;;;;;;;17.83;11.77;;;27.60;99.90;;;;;;5075087;28;20024;-53
2023/07/24 06:15:59;;;;;;;16.88;11.77;;;;;;;;;;5075200;28;20058;-54
2023/07/24 06:18:25;;;;;;;15.38;11.57;;;;;;;;;;5074874;28;20460;-53
2023/07/24 06:20:54;;;;;;;19.83;11.25;;;28.10;99.90;;;;;;5075157;28;20052;-54
2023/07/24 06:23:20;;;;;;;18.42;11.35;;;28.00;99.90;;;;;;5074850;28;20040;-55
2023/07/24 06:25:46;;;;;;;16.42;11.40;;;28.10;99.90;;;;;;5075125;28;20445;-53
2023/07/24 06:28:11;;;;;;;17.23;12.40;;;28.20;99.90;;;;;;5055950;28;20085;-52
2023/07/24 06:30:39;;;;;;;15.65;10.48;;;28.30;99.90;;;;;;5074919;28;20024;-55
2023/07/24 06:33:04;;;;;;;19.65;12.00;;;28.40;99.90;;;;;;5074818;28;20018;-53
2023/07/24 06:35:31;;;;;;;15.95;10.63;;;28.40;99.90;;;;;;5074705;28;20027;-53
2023/07/24 06:37:56;;;;;;;18.42;11.65;;;28.40;99.90;;;;;;5074749;28;20171;-54
2023/07/24 06:40:22;;;;;;;18.52;11.30;;;28.60;99.90;;;;;;5074564;28;20096;-53
2023/07/24 06:42:48;;;;;;;25.95;11.50;;;28.70;99.90;;;;;;5074360;28;20033;-52
2023/07/24 06:45:14;;;;;;;15.75;11.48;;;28.80;99.90;;;;;;5074771;28;20024;-52
2023/07/24 06:47:39;;;;;;;21.55;11.55;;;29.00;99.90;;;;;;5074527;28;20039;-53
2023/07/24 06:50:06;;;;;;;16.05;10.15;;;;;;;;;;5074073;28;20104;-52
2023/07/24 06:52:33;;;;;;;18.13;12.20;;;29.10;99.90;;;;;;5073956;28;20036;-53
2023/07/24 06:54:59;;;;;;;18.17;11.63;;;29.20;99.90;;;;;;5074783;28;20029;-53
2023/07/24 06:57:25;;;;;;;18.20;10.43;;;29.30;99.90;;;;;;5074309;28;20375;-52
2023/07/24 06:59:51;;;;;;;17.38;11.27;;;29.40;99.90;;;;;;5038828;28;20045;-53
2023/07/24 07:02:17;;;;;;;18.95;11.05;;;;;;;;;;5074266;28;20024;-53
2023/07/24 07:04:43;;;;;;;14.95;10.65;;;29.60;99.90;;;;;;5074603;28;20032;-52
2023/07/24 07:07:10;;;;;;;14.45;10.23;;;29.60;99.90;;;;;;5074277;28;20426;-53
2023/07/24 07:09:36;;;;;;;14.95;11.02;;;;;;;;;;5074247;28;20033;-55
2023/07/24 07:12:01;;;;;;;16.33;10.85;;;29.80;99.90;;;;;;5074120;28;20028;-55
2023/07/24 07:14:27;;;;;;;18.15;11.95;;;29.80;99.90;;;;;;5073877;28;20105;-53
2023/07/24 07:16:53;;;;;;;17.58;11.52;;;30.00;99.90;;;;;;5038710;28;20033;-52
2023/07/24 07:19:19;;;;;;;20.60;12.30;;;;;;;;;;5038444;28;20047;-54
2023/07/24 07:21:45;;;;;;;14.85;11.23;;;30.30;99.90;;;;;;5038490;28;20036;-54
2023/07/24 07:24:10;;;;;;;15.48;10.38;;;30.30;99.90;;;;;;5074067;28;20044;-55
2023/07/24 07:26:36;;;;;;;18.02;10.98;;;30.40;99.90;;;;;;5074288;28;20418;-53
2023/07/24 07:29:02;;;;;;;15.50;10.73;;;30.40;99.90;;;;;;5073960;28;20031;-54
2023/07/24 07:31:27;;;;;;;17.17;11.88;;;30.30;99.90;;;;;;5073853;28;20052;-53
2023/07/24 07:33:53;;;;;;;16.15;10.23;;;30.50;99.90;;;;;;5054809;28;20021;-54
2023/07/24 07:36:19;;;;;;;14.45;11.15;;;30.70;99.90;;;;;;5052827;28;20021;-53
2023/07/24 07:38:45;;;;;;;14.52;11.38;;;30.70;99.90;;;;;;5053557;28;20100;-54
2023/07/24 07:41:11;;;;;;;14.57;10.80;;;;;;;;;;5018229;28;20372;-55
2023/07/24 07:43:37;;;;;;;19.65;11.98;;;;;;;;;;5053311;28;20368;-53
2023/07/24 07:46:03;;;;;;;18.23;11.70;;;;;;;;;;5053316;28;20432;-52
2023/07/24 07:48:29;;;;;;;15.68;11.02;;;;;;;;;;5053656;28;20033;-53
2023/07/24 07:50:55;;;;;;;16.33;10.43;;;30.90;99.90;;;;;;5053378;28;20032;-53
2023/07/24 07:53:21;;;;;;;16.67;11.25;;;31.20;99.90;;;;;;5053272;28;20021;-52
2023/07/24 07:55:55;;;;;;;17.23;10.82;;;31.40;99.90;;;;;;5053731;28;20036;-52
2023/07/24 07:58:21;;;;;;;15.80;11.02;;;31.50;99.90;;;;;;5053085;28;20074;-52
2023/07/24 08:00:46;;;;;;;17.00;11.18;;;31.70;99.90;;;;;;5052979;28;20053;-53
2023/07/24 08:03:12;;;;;;;17.08;10.90;;;31.70;99.90;;;;;;5051935;28;20037;-52
2023/07/24 08:05:38;;;;;;;16.27;11.32;;;;;;;;;;5052800;28;20028;-52
2023/07/24 08:08:04;;;;;;;18.25;10.57;;;;;;;;;;4985257;28;20037;-52
2023/07/24 08:10:30;;;;;;;17.15;11.32;;;;;;;;;;5052767;28;20093;-53
2023/07/24 08:12:57;;;;;;;19.70;10.70;;;;;;;;;;5053012;28;20035;-52
2023/07/24 08:15:23;;;;;;;16.88;11.20;;;;;;;;;;5052987;28;20052;-53
2023/07/24 08:17:49;;;;;;;12.70;9.40;;;;;;;;;;5001662;28;20039;-53
2023/07/24 08:20:15;;;;;;;16.80;10.77;;;;;;;;;;5052849;28;20021;-52
2023/07/24 08:22:41;;;;;;;15.13;10.57;;;32.60;99.90;;;;;;5052464;28;20025;-52
2023/07/24 08:25:07;;;;;;;14.40;10.75;;;32.70;99.90;;;;;;5053102;28;20055;-53
2023/07/24 08:27:33;;;;;;;16.58;10.57;;;;;;;;;;4990712;28;20085;-52
2023/07/24 08:30:00;;;;;;;14.20;9.82;;;32.80;99.90;;;;;;4990794;28;20125;-54
2023/07/24 08:32:25;;;;;;;17.20;11.95;;;32.90;99.90;;;;;;4958337;28;20077;-52
2023/07/24 08:34:51;;;;;;;16.27;10.45;;;;;;;;;;4991110;28;20113;-53
2023/07/24 08:37:18;;;;;;;15.50;10.38;;;;;;;;;;4990841;28;20062;-53
2023/07/24 08:39:43;;;;;;;15.52;10.40;;;32.70;99.90;;;;;;4990755;28;20143;-53
2023/07/24 08:42:13;;;;;;;15.65;10.48;;;32.60;99.90;;;;;;4990751;28;20031;-52
2023/07/24 08:44:39;;;;;;;14.27;9.70;;;32.60;99.90;;;;;;4974132;28;20046;-53
2023/07/24 08:47:09;;;;;;;13.27;10.02;;;32.70;99.90;;;;;;4958166;28;20038;-53
2023/07/24 08:49:40;;;;;;;15.35;10.43;;;32.70;99.90;;;;;;4990530;28;20033;-53
2023/07/24 08:52:07;;;;;;;16.63;11.48;;;;;;;;;;4990537;28;20038;-52
2023/07/24 08:54:35;;;;;;;18.05;11.65;;;33.00;99.90;;;;;;4990483;28;20094;-53
2023/07/24 08:57:02;;;;;;;16.67;10.30;;;33.20;99.90;;;;;;4990623;28;20040;-53
2023/07/24 08:59:29;;;;;;;12.50;9.40;;;33.40;99.90;;;;;;5044297;28;20519;-53
2023/07/24 09:01:55;;;;;;;14.50;9.98;;;;;;;;;;5052434;28;20056;-53
2023/07/24 09:04:21;;;;;;;16.08;9.68;;;33.70;99.90;;;;;;5051850;28;20036;-52
2023/07/24 09:06:48;;;;;;;16.77;10.80;;;33.80;99.90;;;;;;5051916;28;20021;-53
2023/07/24 09:09:15;;;;;;;18.55;10.45;;;33.90;99.90;;;;;;4984034;28;20040;-54
2023/07/24 09:11:52;;;;;;;23.42;10.90;;;33.90;99.90;;;;;;5034030;28;20107;-53
2023/07/24 09:14:30;;;;;;;13.75;10.07;;;34.10;99.90;;;;;;5050719;28;20069;-54
2023/07/24 09:17:06;;;;;;;16.17;10.18;;;;;;;;;;5051662;28;20025;-53
2023/07/24 09:19:32;;;;;;;14.13;10.38;;;34.50;99.90;;;;;;5051900;28;20021;-53
2023/07/24 09:22:10;;;;;;;15.40;10.35;;;34.50;99.90;;;;;;5052146;28;20021;-52
2023/07/24 09:24:36;;;;;;;15.45;10.35;;;34.30;99.90;;;;;;5051499;28;20108;-52
2023/07/24 09:27:05;;;;;;;15.27;9.15;;;34.60;99.90;;;;;;5016523;28;20488;-53
2023/07/24 09:29:33;;;;;;;15.10;9.77;;;34.70;99.90;;;;;;5000547;28;20400;-53
2023/07/24 09:31:59;;;;;;;15.05;11.02;;;34.70;99.90;;;;;;5051946;28;20103;-53
2023/07/24 09:34:28;;;;;;;13.48;9.55;;;34.60;99.90;;;;;;5052119;28;20021;-53
2023/07/24 09:36:55;;;;;;;14.20;10.38;;;;;;;;;;5051498;28;20025;-52
2023/07/24 09:39:27;;;;;;;14.38;9.35;;;35.00;99.90;;;;;;5016779;28;20095;-53
2023/07/24 09:41:54;;;;;;;14.23;10.13;;;35.10;99.90;;;;;;5016255;28;20095;-52
2023/07/24 09:44:20;;;;;;;14.63;10.52;;;35.20;99.90;;;;;;5050226;28;20127;-53
2023/07/24 09:46:46;;;;;;;14.85;10.10;;;35.40;99.90;;;;;;5051553;28;20464;-52
2023/07/24 09:49:12;;;;;;;15.02;10.23;;;;;;;;;;4967654;28;20087;-53
2023/07/24 09:51:38;;;;;;;18.85;11.48;;;35.60;99.90;;;;;;5051436;28;20029;-53
2023/07/24 09:54:32;;;;;;;15.85;10.55;;;35.70;99.90;;;;;;5016105;28;20120;-53
2023/07/24 09:56:59;;;;;;;18.30;10.82;;;35.70;99.90;;;;;;5047988;28;20083;-52
2023/07/24 09:59:28;;;;;;;16.55;11.02;;;35.80;99.90;;;;;;5050416;28;20057;-55
2023/07/24 10:01:54;;;;;;;14.38;10.63;;;35.80;99.90;;;;;;5049806;28;20526;-52
2023/07/24 10:04:21;;;;;;;14.25;10.68;;;35.90;99.90;;;;;;5050991;28;20052;-53
2023/07/24 10:06:47;;;;;;;15.52;9.70;;;36.10;99.90;;;;;;5051317;28;20466;-53
2023/07/24 10:09:14;;;;;;;14.10;9.70;;;36.20;99.90;;;;;;5051206;28;20108;-53
2023/07/24 10:11:40;;;;;;;15.52;10.10;;;36.30;99.90;;;;;;5047712;28;20117;-53
2023/07/24 10:14:06;;;;;;;14.18;10.65;;;36.10;99.90;;;;;;5031458;28;20105;-53
2023/07/24 10:16:32;;;;;;;18.48;10.77;;;36.30;99.90;;;;;;5031549;28;20025;-55
2023/07/24 10:18:58;;;;;;;20.05;11.02;;;36.70;99.90;;;;;;5031478;28;20025;-54
2023/07/24 10:21:28;;;;;;;14.95;10.35;;;36.40;99.90;;;;;;5031225;28;20026;-54
2023/07/24 10:23:53;;;;;;;14.85;11.00;;;36.60;99.90;;;;;;5031204;28;20481;-55
2023/07/24 10:26:26;;;;;;;14.35;10.00;;;36.80;99.90;;;;;;5032184;28;20083;-54
2023/07/24 10:28:54;;;;;;;15.13;11.05;;;36.50;99.90;;;;;;5034287;28;20108;-56
2023/07/24 10:31:28;;;;;;;16.20;10.30;;;36.90;99.90;;;;;;5034955;28;20033;-56
2023/07/24 10:33:55;;;;;;;15.63;10.77;;;37.00;99.90;;;;;;5015780;28;20044;-54
2023/07/24 10:36:22;;;;;;;17.02;10.30;;;37.30;99.90;;;;;;5034976;28;20041;-55
2023/07/24 10:38:53;;;;;;;14.05;9.77;;;37.40;99.90;;;;;;5033892;28;20060;-56
2023/07/24 10:41:19;;;;;;;;;;;37.50;99.90;;;;;;5035260;28;20030;-55
2023/07/24 10:43:47;;;;;;;14.63;9.70;;;37.70;99.90;;;;;;5034608;28;19919;-55
2023/07/24 10:46:14;;;;;;;12.30;9.65;;;37.50;99.90;;;;;;5034490;28;20591;-55
2023/07/24 10:48:45;;;;;;;15.52;10.32;;;37.30;99.90;;;;;;5034590;28;20406;-55
2023/07/24 10:51:14;;;;;;;16.85;11.73;;;37.60;99.90;;;;;;5034553;28;20052;-55
2023/07/24 10:53:48;;;;;;;14.32;10.45;;;37.60;99.90;;;;;;5034957;28;20041;-55
2023/07/24 10:56:15;;;;;;;12.88;9.82;;;36.90;99.90;;;;;;5022951;28;20029;-55
2023/07/24 10:58:42;;;;;;;18.38;11.27;;;37.20;99.90;;;;;;5016339;28;20365;-55
2023/07/24 11:01:09;;;;;;;15.00;10.35;;;37.10;99.90;;;;;;5053999;28;20057;-55
2023/07/24 11:03:40;;;;;;;14.18;10.20;;;37.30;99.90;;;;;;5054190;28;20037;-55
2023/07/24 11:06:11;;;;;;;;;;;37.00;99.90;;;;;;5054597;28;20029;-55
2023/07/24 11:08:40;;;;;;;15.02;10.45;;;37.20;99.90;;;;;;5017327;28;20308;-56
2023/07/24 11:11:07;;;;;;;12.80;10.50;;;37.00;99.90;;;;;;5053375;28;20033;-54
2023/07/24 11:13:34;;;;;;;12.68;10.32;;;37.40;99.90;;;;;;5018646;28;20033;-54
2023/07/24 11:16:05;;;;;;;17.38;11.95;;;37.40;99.90;;;;;;5045868;28;20412;-54
2023/07/24 11:18:31;;;;;;;14.10;9.63;;;;;;;;;;4999024;28;20121;-54
2023/07/24 11:20:57;;;;;;;15.27;11.20;;;37.70;99.90;;;;;;5033909;28;20481;-54
2023/07/24 11:23:23;;;;;;;14.30;10.50;;;37.60;99.90;;;;;;5033928;28;20048;-54
2023/07/24 11:25:53;;;;;;;14.63;9.77;;;37.50;99.90;;;;;;5034164;28;20044;-55
2023/07/24 11:28:20;;;;;;;15.23;9.60;;;37.40;99.90;;;;;;5001686;28;20128;-53
2023/07/24 11:30:46;;;;;;;12.40;9.80;;;37.60;99.90;;;;;;5036212;28;20457;-56
2023/07/24 11:33:15;;;;;;;15.50;10.65;;;37.70;99.90;;;;;;4997933;28;20147;-55
2023/07/24 11:35:41;;;;;;;14.60;10.48;;;37.90;99.90;;;;;;5027712;28;20041;-55
2023/07/24 11:38:10;;;;;;;16.85;8.90;;;38.00;99.90;;;;;;4980856;28;20119;-55
2023/07/24 11:40:44;;;;;;;13.07;9.07;;;38.30;99.90;;;;;;5048780;28;20040;-55
2023/07/24 11:43:23;;;;;;;14.90;10.30;;;;;;;;;;5043606;28;20056;-54
2023/07/24 11:45:53;;;;;;;12.60;9.43;;;38.40;99.90;;;;;;5042527;28;20703;-54
2023/07/24 11:48:23;;;;;;;13.50;9.55;;;38.20;99.90;;;;;;5045541;28;20068;-58
2023/07/24 11:50:52;;;;;;;14.53;10.10;;;38.30;99.90;;;;;;5040331;28;20034;-55
2023/07/24 11:53:25;;;;;;;14.18;10.52;;;38.00;99.90;;;;;;4998108;28;20311;-57
2023/07/24 11:55:53;;;;;;;12.25;10.13;;;37.90;99.90;;;;;;5033116;28;20033;-56
2023/07/24 11:58:20;;;;;;;14.18;9.32;;;37.80;99.90;;;;;;4998169;28;20041;-54
2023/07/24 12:00:47;;;;;;;12.13;8.35;;;38.00;99.90;;;;;;5033020;28;20072;-61
2023/07/24 12:03:14;;;;;;;13.88;9.30;;;38.00;99.90;;;;;;5030161;28;20525;-59
2023/07/24 12:05:41;;;;;;;12.57;8.80;;;38.10;99.90;;;;;;5033150;28;20048;-58
2023/07/24 12:08:08;;;;;;;12.10;8.82;;;38.20;99.90;;;;;;5033053;28;20036;-59
2023/07/24 12:10:37;;;;;;;14.93;9.55;;;38.50;99.90;;;;;;5033239;28;20028;-59
2023/07/24 12:13:02;;;;;;;14.30;9.45;;;38.60;99.90;;;;;;5033071;28;20034;-59
2023/07/24 12:15:28;;;;;;;12.05;9.35;;;38.40;99.90;;;;;;5033033;28;20489;-58
2023/07/24 12:17:56;;;;;;;14.00;9.50;;;;;;;;;;5033065;28;20025;-58
2023/07/24 12:20:23;;;;;;;13.68;9.80;;;38.90;99.90;;;;;;5033356;28;20469;-63
2023/07/24 12:22:49;;;;;;;14.52;9.07;;;38.90;99.90;;;;;;5032840;28;20075;-58
2023/07/24 12:25:16;;;;;;;14.80;9.60;;;38.40;99.90;;;;;;5032789;28;20026;-64
2023/07/24 12:27:42;;;;;;;11.45;9.15;;;38.80;99.90;;;;;;5032885;28;20045;-59
2023/07/24 12:30:08;;;;;;;14.00;9.13;;;39.00;99.90;;;;;;4990786;28;20113;-58
2023/07/24 12:32:35;;;;;;;14.07;8.70;;;39.00;99.90;;;;;;4990913;28;20027;-62
2023/07/24 12:35:00;;;;;;;12.07;9.32;;;39.20;99.90;;;;;;4990995;28;20062;-61
2023/07/24 12:37:26;;;;;;;15.38;9.82;;;39.00;99.90;;;;;;4958221;28;20072;-60
2023/07/24 12:39:52;;;;;;;12.23;8.82;;;38.90;99.90;;;;;;4990904;28;20117;-60
2023/07/24 12:42:18;;;;;;;12.68;8.95;;;39.10;99.90;;;;;;4990886;28;20038;-61